METAR Reports From Nearby Airports

 

KTIW - Tacoma, Washington, USA
Distance from station: S 6mi, 10km
Updated: Wed, 22-Nov-2017 2:53am PST
Overcast
Overcast
 Wind from S
Wind: S 9 mph , 15 km/h
Temperature: 59°F , 15°C
Dew Point: 57°F , 14°C
Humidity: 94%
Barometer: 29.96 inHg , 1014.6 hPa
Clouds: Overcast
Visibility: 10 miles , 16 km
Cloud details: Mostly cloudy 3000 ft
Overcast 4200 ft
2017/11/22 10:53 KTIW 221053Z AUTO 18008KT 10SM BKN030 OVC042 15/14 A2996 RMK AO2 RAB15E44 SLP144 P0001 T01500139
KPWT - Bremerton Ntnl, Washington, USA
Distance from station: NW 13mi, 20km
Updated: Wed, 22-Nov-2017 2:56am PST
Overcast
Overcast
 Wind from SSW
Wind: SSW 13 mph , 20 km/h, Gust: 20 mph , 31 km/h
Temperature: 57°F , 14°C
Dew Point: 55°F , 13°C
Humidity: 94%
Barometer: 29.95 inHg , 1014.2 hPa
Clouds: Overcast
Visibility: 10 miles , 16 km
Cloud details: Overcast 400 ft
2017/11/22 10:56 KPWT 221056Z AUTO 21011G17KT 10SM OVC004 14/13 A2995 RMK AO2 RAE49 CIG 003V008 SLP161 T01390133
KSEA - Seattle/Metro, Washington, USA
Distance from station: ENE 14mi, 23km
Updated: Wed, 22-Nov-2017 2:53am PST
Light rain, Mist, Overcast
Light rain, Mist, Overcast
 Wind from S
Wind: S 5 mph , 7 km/h
Temperature: 57°F , 14°C
Dew Point: 55°F , 13°C
Humidity: 94%
Barometer: 29.95 inHg , 1014.2 hPa
Summary: Light rain, Mist
Clouds: Overcast
Visibility: 5 miles , 8 km
Cloud details: Mostly cloudy 3000 ft
Mostly cloudy 3900 ft
Overcast 5000 ft
2017/11/22 10:53 KSEA 221053Z 17004KT 5SM -RA BR BKN030 BKN039 OVC050 14/13 A2995 RMK AO2 RAE17B42 SLP149 P0003 T01390133
 
KTCM - Tacoma/Mc Chord, Washington, USA
Distance from station: SSE 17mi, 28km
Updated: Wed, 22-Nov-2017 1:58am PST
Overcast
Overcast
 Wind from S
Wind: S 6 mph , 9 km/h
Temperature: 59°F , 15°C
Dew Point: 59°F , 15°C
Humidity: 100%
Barometer: 29.95 inHg , 1014.2 hPa
Clouds: Overcast
Visibility: 10 miles , 16 km
Cloud details: Partly cloudy 3900 ft
Mostly cloudy 4900 ft
Overcast 6000 ft
2017/11/22 09:58 KTCM 220958Z AUTO 17005KT 10SM SCT039 BKN049 OVC060 15/15 A2995 RMK AO2 RAB12E27 SLP146 P0000 T01510151 $
KBFI - Seattle/Boeing, Washington, USA
Distance from station: NE 19mi, 30km
Updated: Wed, 22-Nov-2017 2:53am PST
Mist, Overcast
Mist, Overcast
 Wind from SSE
Wind: SSE 7 mph , 11 km/h
Temperature: 55°F , 13°C
Dew Point: 55°F , 13°C
Humidity: 100%
Barometer: 29.95 inHg , 1014.2 hPa
Summary: Mist
Clouds: Overcast
Visibility: 6 miles , 10 km
Cloud details: Few Clouds 2200 ft
Mostly cloudy 3000 ft
Overcast 3600 ft
2017/11/22 10:53 KBFI 221053Z 16006KT 6SM BR FEW022 BKN030 OVC036 13/13 A2995 RMK AO2 RAE45 SLP142 P0002 T01330133
KGRF - Fort Lewis/Gray, Washington, USA
Distance from station: S 20mi, 32km
Updated: Wed, 22-Nov-2017 1:58am PST
Overcast
Overcast
 Wind from S
Wind: S 7 mph , 11 km/h
Temperature: 61°F , 16°C
Dew Point: 61°F , 16°C
Humidity: 100%
Barometer: 29.95 inHg , 1014.2 hPa
Clouds: Overcast
Visibility: 10 miles , 16 km
Cloud details: Partly cloudy 3200 ft
Mostly cloudy 4300 ft
Overcast 6000 ft
2017/11/22 09:58 KGRF 220958Z 17006KT 10SM SCT032 BKN043 OVC060 16/16 A2995 RMK AO2A RAB03E17 SLP146 P0000 T01620162 $
 
KRNT - Renton, Washington, USA
Distance from station: ENE 20mi, 32km
Updated: Wed, 22-Nov-2017 2:53am PST
Light rain, Overcast
Light rain, Overcast
 Wind from SE
Wind: SE 3 mph , 6 km/h
Temperature: 55°F , 13°C
Dew Point: 55°F , 13°C
Humidity: 100%
Barometer: 29.95 inHg , 1014.2 hPa
Summary: Light rain
Clouds: Overcast
Visibility: 9 miles , 14 km
Cloud details: Partly cloudy 3000 ft
Mostly cloudy 3600 ft
Overcast 4400 ft
2017/11/22 10:53 KRNT 221053Z AUTO 13003KT 9SM -RA SCT030 BKN036 OVC044 13/13 A2995 RMK AO2 SLP146 P0001 T01280128
KPLU - Puyallup/Thun, Washington, USA
Distance from station: SE 23mi, 36km
Updated: Wed, 22-Nov-2017 2:35am PST
Overcast
Overcast
 Wind from S
Wind: S 5 mph , 7 km/h
Temperature: 63°F , 17°C
Dew Point: 57°F , 14°C
Humidity: 83%
Barometer: 29.96 inHg , 1014.6 hPa
Clouds: Overcast
Visibility: 10 miles , 16 km
Cloud details: Few Clouds 4500 ft
Overcast 5500 ft
2017/11/22 10:35 KPLU 221035Z AUTO 19004KT 10SM FEW045 OVC055 17/14 A2996 RMK AO2
KSHN - Shelton, Washington, USA
Distance from station: WSW 27mi, 43km
Updated: Wed, 22-Nov-2017 2:53am PST
Light rain, Mist, Overcast
Light rain, Mist, Overcast
 Wind from calm
Wind: Calm
Temperature: 57°F , 14°C
Dew Point: 57°F , 14°C
Humidity: 100%
Barometer: 29.93 inHg , 1013.5 hPa
Summary: Light rain, Mist
Clouds: Overcast
Visibility: 2 miles , 3 km
Cloud details: Overcast 2900 ft
2017/11/22 10:53 KSHN 221053Z AUTO 00000KT 2SM -RA BR OVC029 14/14 A2993 RMK AO2 VIS 1 1/4V4 RAE12B29 SLP137 P0002 T01390139
 
KOLM - Olympia, Washington, USA
Distance from station: SSW 30mi, 49km
Updated: Wed, 22-Nov-2017 2:54am PST
Overcast
Overcast
 Wind from SSW
Wind: SSW 7 mph , 11 km/h
Temperature: 59°F , 15°C
Dew Point: 57°F , 14°C
Humidity: 94%
Barometer: 29.96 inHg , 1014.6 hPa
Clouds: Overcast
Visibility: 10 miles , 16 km
Cloud details: Few Clouds 1200 ft
Overcast 3400 ft
2017/11/22 10:54 KOLM 221054Z AUTO 21006KT 10SM FEW012 OVC034 15/14 A2996 RMK AO2 SLP144 T01500144
KPAE - Everett, Washington, USA
Distance from station: NNE 41mi, 67km
Updated: Wed, 22-Nov-2017 2:53am PST
Overcast
Overcast
 Wind from SE
Wind: SE 12 mph , 19 km/h
Temperature: 57°F , 14°C
Dew Point: 57°F , 14°C
Humidity: 100%
Barometer: 29.96 inHg , 1014.6 hPa
Clouds: Overcast
Visibility: 10 miles , 16 km
Cloud details: Mostly cloudy 900 ft
Overcast 1600 ft
2017/11/22 10:53 KPAE 221053Z AUTO 14010KT 10SM BKN009 OVC016 14/14 A2996 RMK AO2 RAB14E52 CIG 006V012 SLP144 P0001 T01440139
KCLS - Chehalis Central, Washington, USA
Distance from station: SSW 50mi, 80km
Updated: Wed, 22-Nov-2017 2:55am PST
Overcast
Overcast
 Wind from S
Wind: S 12 mph , 19 km/h, Gust: 17 mph , 28 km/h
Temperature: 59°F , 15°C
Dew Point: 59°F , 15°C
Humidity: 100%
Barometer: 29.97 inHg , 1014.9 hPa
Clouds: Overcast
Visibility: 10 miles , 16 km
Cloud details: Overcast 4000 ft
2017/11/22 10:55 KCLS 221055Z AUTO 19010G15KT 10SM OVC040 15/15 A2997 RMK AO2